Time,TemperatureF,DewpointF,PressureIn,WindDirection,WindDirectionDegrees,WindSpeedMPH,WindSpeedGustMPH,Humidity,HourlyPrecipIn,Conditions,Clouds,dailyrainin,SoftwareType,DateUTC
2013-02-09 00:00:00,30.2,29.7,29.26,NNE,22,0.0,0.0,98,0.00,,,0.00,VWS V14.01,2013-02-09 05:00:00,
2013-02-09 00:30:00,29.9,29.4,29.27,NNE,22,0.0,0.0,98,0.00,,,0.00,VWS V14.01,2013-02-09 05:30:00,
2013-02-09 01:00:00,28.1,27.4,29.29,NNE,22,0.0,0.0,97,0.00,,,0.00,VWS V14.01,2013-02-09 06:00:00,
2013-02-09 01:30:00,27.3,26.6,29.32,NNE,22,0.0,0.0,97,0.00,,,0.00,VWS V14.01,2013-02-09 06:30:00,
2013-02-09 02:00:00,26.0,25.3,29.34,NNE,22,0.0,0.0,97,0.00,,,0.00,VWS V14.01,2013-02-09 07:00:00,
2013-02-09 02:30:00,24.2,23.2,29.38,NNE,22,0.0,0.0,96,0.00,,,0.00,VWS V14.01,2013-02-09 07:30:00,
2013-02-09 03:00:00,20.5,19.0,29.40,NNE,22,0.0,0.0,94,0.00,,,0.00,VWS V14.01,2013-02-09 08:00:00,
2013-02-09 03:30:00,18.9,17.5,29.42,NNE,22,0.0,0.0,94,0.00,,,0.00,VWS V14.01,2013-02-09 08:30:00,
2013-02-09 04:00:00,19.2,18.0,29.41,NNE,22,0.0,0.0,95,0.00,,,0.00,VWS V14.01,2013-02-09 09:00:00,
2013-02-09 04:30:00,19.8,18.6,29.43,NNE,22,0.0,0.0,95,0.00,,,0.00,VWS V14.01,2013-02-09 09:30:00,
2013-02-09 05:00:00,20.1,18.9,29.45,NNE,22,0.0,0.0,95,0.00,,,0.00,VWS V14.01,2013-02-09 10:00:00,
2013-02-09 05:30:00,18.8,17.4,29.48,NNE,22,0.0,0.0,94,0.00,,,0.00,VWS V14.01,2013-02-09 10:30:00,
2013-02-09 06:00:00,18.1,16.7,29.51,NNE,22,0.0,0.0,94,0.00,,,0.00,VWS V14.01,2013-02-09 11:00:00,
2013-02-09 06:30:00,18.0,16.6,29.53,NNE,22,0.0,0.0,94,0.00,,,0.00,VWS V14.01,2013-02-09 11:30:00,
2013-02-09 07:00:00,18.2,16.8,29.55,NNE,22,0.0,0.0,94,0.00,,,0.00,VWS V14.01,2013-02-09 12:00:00,
2013-02-09 07:30:00,18.5,17.1,29.56,NNE,22,0.0,0.0,94,0.00,,,0.00,VWS V14.01,2013-02-09 12:30:00,
2013-02-09 08:00:00,18.9,17.5,29.57,NNE,22,0.0,0.0,94,0.00,,,0.00,VWS V14.01,2013-02-09 13:00:00,
2013-02-09 08:30:00,19.3,18.1,29.59,NNE,22,0.0,0.0,95,0.00,,,0.00,VWS V14.01,2013-02-09 13:30:00,
2013-02-09 09:00:00,19.9,18.7,29.61,NNE,22,0.0,0.0,95,0.00,,,0.00,VWS V14.01,2013-02-09 14:00:00,
2013-02-09 09:30:00,20.3,19.1,29.63,NNE,22,0.0,0.0,95,0.00,,,0.00,VWS V14.01,2013-02-09 14:30:00,
2013-02-09 10:00:00,20.9,19.7,29.63,NNE,22,0.0,0.0,95,0.00,,,0.00,VWS V14.01,2013-02-09 15:00:00,
2013-02-09 10:30:00,21.3,20.1,29.64,NNE,22,0.0,0.0,95,0.00,,,0.00,VWS V14.01,2013-02-09 15:30:00,
2013-02-09 11:00:00,21.1,19.9,29.66,NNE,22,0.0,0.0,95,0.00,,,0.00,VWS V14.01,2013-02-09 16:00:00,
2013-02-09 11:30:00,21.7,20.5,29.67,NNE,22,0.0,0.0,95,0.00,,,0.00,VWS V14.01,2013-02-09 16:30:00,
2013-02-09 12:00:00,21.8,20.6,29.69,NNE,22,0.0,0.0,95,0.00,,,0.00,VWS V14.01,2013-02-09 17:00:00,
2013-02-09 12:30:00,21.7,20.5,29.70,NNE,22,0.0,0.0,95,0.00,,,0.00,VWS V14.01,2013-02-09 17:30:00,
2013-02-09 13:00:00,22.1,20.9,29.72,NNE,22,0.0,0.0,95,0.00,,,0.00,VWS V14.01,2013-02-09 18:00:00,
2013-02-09 13:30:00,22.3,21.1,29.75,NNE,22,0.0,0.0,95,0.00,,,0.00,VWS V14.01,2013-02-09 18:30:00,
2013-02-09 14:00:00,21.3,20.1,29.78,NNE,22,0.0,0.0,95,0.00,,,0.00,VWS V14.01,2013-02-09 19:00:00,
2013-02-09 14:30:00,21.0,19.8,29.81,NNE,22,0.0,0.0,95,0.00,,,0.00,VWS V14.01,2013-02-09 19:30:00,
2013-02-09 15:00:00,20.4,19.0,29.84,NNE,22,0.0,0.0,94,0.00,,,0.00,VWS V14.01,2013-02-09 20:00:00,
2013-02-09 15:30:00,20.0,18.5,29.85,NNE,22,0.0,0.0,94,0.00,,,0.00,VWS V14.01,2013-02-09 20:30:00,
2013-02-09 16:00:00,19.8,18.4,29.87,NNE,22,0.0,0.0,94,0.00,,,0.00,VWS V14.01,2013-02-09 21:00:00,
2013-02-09 16:30:00,19.6,18.2,29.90,NNE,22,0.0,0.0,94,0.00,,,0.00,VWS V14.01,2013-02-09 21:30:00,
2013-02-09 17:00:00,19.4,18.0,29.93,NNE,22,0.0,0.0,94,0.00,,,0.00,VWS V14.01,2013-02-09 22:00:00,
2013-02-09 17:30:00,19.3,17.6,29.95,NNE,22,0.0,0.0,93,0.00,,,0.00,VWS V14.01,2013-02-09 22:30:00,
2013-02-09 18:00:00,19.1,17.4,29.97,NNE,22,0.0,0.0,93,0.00,,,0.00,VWS V14.01,2013-02-09 23:00:00,
2013-02-09 18:30:00,18.8,17.1,29.99,NNE,22,0.0,0.0,93,0.00,,,0.00,VWS V14.01,2013-02-09 23:30:00,
2013-02-09 19:00:00,18.5,16.8,30.01,NNE,22,0.0,0.0,93,0.00,,,0.00,VWS V14.01,2013-02-10 00:00:00,
2013-02-09 19:30:00,18.4,16.7,30.02,NNE,22,0.0,0.0,93,0.00,,,0.00,VWS V14.01,2013-02-10 00:30:00,
2013-02-09 20:00:00,17.9,16.0,30.04,NNE,22,0.0,0.0,92,0.00,,,0.00,VWS V14.01,2013-02-10 01:00:00,
2013-02-09 20:30:00,17.0,15.1,30.05,NNE,22,0.0,0.0,92,0.00,,,0.00,VWS V14.01,2013-02-10 01:30:00,
2013-02-09 21:00:00,16.2,14.3,30.05,NNE,22,0.0,0.0,92,0.00,,,0.00,VWS V14.01,2013-02-10 02:00:00,
2013-02-09 21:30:00,15.5,13.4,30.07,NNE,22,0.0,0.0,91,0.00,,,0.00,VWS V14.01,2013-02-10 02:30:00,
2013-02-09 22:00:00,15.0,12.9,30.08,NNE,22,0.0,0.0,91,0.00,,,0.00,VWS V14.01,2013-02-10 03:00:00,
2013-02-09 22:30:00,14.5,12.4,30.09,NNE,22,0.0,0.0,91,0.00,,,0.00,VWS V14.01,2013-02-10 03:30:00,
2013-02-09 23:00:00,14.3,12.2,30.10,NNE,22,0.0,0.0,91,0.00,,,0.00,VWS V14.01,2013-02-10 04:00:00,
2013-02-09 23:30:00,14.0,11.9,30.12,NNE,22,0.0,0.0,91,0.00,,,0.00,VWS V14.01,2013-02-10 04:30:00,